sensor_id;sensor_type;location;lat;lon;timestamp;temperature;humidity
17715;DHT22;8977;50.902;4.314;2023-04-15T00:01:16;14.10;99.90
17715;DHT22;8977;50.902;4.314;2023-04-15T00:03:43;14.10;99.90
17715;DHT22;8977;50.902;4.314;2023-04-15T00:06:10;14.10;99.90
17715;DHT22;8977;50.902;4.314;2023-04-15T00:08:38;14.10;99.90
17715;DHT22;8977;50.902;4.314;2023-04-15T00:11:05;14.10;99.90
17715;DHT22;8977;50.902;4.314;2023-04-15T00:13:33;14.10;99.90
17715;DHT22;8977;50.902;4.314;2023-04-15T00:16:00;14.10;99.90
17715;DHT22;8977;50.902;4.314;2023-04-15T00:18:27;14.10;99.90
17715;DHT22;8977;50.902;4.314;2023-04-15T00:20:56;14.10;99.90
17715;DHT22;8977;50.902;4.314;2023-04-15T00:23:23;14.10;99.90
17715;DHT22;8977;50.902;4.314;2023-04-15T00:25:50;14.10;99.90
17715;DHT22;8977;50.902;4.314;2023-04-15T00:28:17;14.10;99.90
17715;DHT22;8977;50.902;4.314;2023-04-15T00:30:45;14.00;99.90
17715;DHT22;8977;50.902;4.314;2023-04-15T00:33:12;14.00;99.90
17715;DHT22;8977;50.902;4.314;2023-04-15T00:35:41;14.00;99.90
17715;DHT22;8977;50.902;4.314;2023-04-15T00:38:07;14.00;99.90
17715;DHT22;8977;50.902;4.314;2023-04-15T00:40:34;14.00;99.90
17715;DHT22;8977;50.902;4.314;2023-04-15T00:43:01;14.00;99.90
17715;DHT22;8977;50.902;4.314;2023-04-15T00:45:28;14.00;99.90
17715;DHT22;8977;50.902;4.314;2023-04-15T00:47:57;14.10;99.90
17715;DHT22;8977;50.902;4.314;2023-04-15T00:50:24;14.10;99.90
17715;DHT22;8977;50.902;4.314;2023-04-15T00:52:51;14.00;99.90
17715;DHT22;8977;50.902;4.314;2023-04-15T00:55:18;14.00;99.90
17715;DHT22;8977;50.902;4.314;2023-04-15T00:57:45;13.90;99.90
17715;DHT22;8977;50.902;4.314;2023-04-15T01:00:12;13.90;99.90
17715;DHT22;8977;50.902;4.314;2023-04-15T01:02:39;13.90;99.90
17715;DHT22;8977;50.902;4.314;2023-04-15T01:05:08;13.90;99.90
17715;DHT22;8977;50.902;4.314;2023-04-15T01:07:35;13.90;99.90
17715;DHT22;8977;50.902;4.314;2023-04-15T01:10:02;13.90;99.90
17715;DHT22;8977;50.902;4.314;2023-04-15T01:12:31;13.90;99.90
17715;DHT22;8977;50.902;4.314;2023-04-15T01:15:00;13.80;99.90
17715;DHT22;8977;50.902;4.314;2023-04-15T01:17:27;13.80;99.90
17715;DHT22;8977;50.902;4.314;2023-04-15T01:19:55;13.80;99.90
17715;DHT22;8977;50.902;4.314;2023-04-15T01:22:24;13.90;99.90
17715;DHT22;8977;50.902;4.314;2023-04-15T01:24:56;13.80;99.90
17715;DHT22;8977;50.902;4.314;2023-04-15T01:27:27;13.80;99.90
17715;DHT22;8977;50.902;4.314;2023-04-15T01:29:54;13.80;99.90
17715;DHT22;8977;50.902;4.314;2023-04-15T01:32:22;13.80;99.90
17715;DHT22;8977;50.902;4.314;2023-04-15T01:34:48;13.80;99.90
17715;DHT22;8977;50.902;4.314;2023-04-15T01:37:15;13.80;99.90
17715;DHT22;8977;50.902;4.314;2023-04-15T01:39:42;13.80;99.90
17715;DHT22;8977;50.902;4.314;2023-04-15T01:42:09;13.80;99.90
17715;DHT22;8977;50.902;4.314;2023-04-15T01:44:38;13.80;99.90
17715;DHT22;8977;50.902;4.314;2023-04-15T01:47:05;13.80;99.90
17715;DHT22;8977;50.902;4.314;2023-04-15T01:49:33;13.80;99.90
17715;DHT22;8977;50.902;4.314;2023-04-15T01:52:00;13.80;99.90
17715;DHT22;8977;50.902;4.314;2023-04-15T01:54:27;13.80;99.90
17715;DHT22;8977;50.902;4.314;2023-04-15T01:56:54;13.80;99.90
17715;DHT22;8977;50.902;4.314;2023-04-15T01:59:21;13.80;99.90
17715;DHT22;8977;50.902;4.314;2023-04-15T02:01:49;13.70;99.90
17715;DHT22;8977;50.902;4.314;2023-04-15T02:04:16;13.70;99.90
17715;DHT22;8977;50.902;4.314;2023-04-15T02:06:43;13.70;99.90
17715;DHT22;8977;50.902;4.314;2023-04-15T02:09:10;13.70;99.90
17715;DHT22;8977;50.902;4.314;2023-04-15T02:11:37;13.70;99.90
17715;DHT22;8977;50.902;4.314;2023-04-15T02:14:04;13.70;99.90
17715;DHT22;8977;50.902;4.314;2023-04-15T02:16:32;13.70;99.90
17715;DHT22;8977;50.902;4.314;2023-04-15T02:19:00;13.70;99.90
17715;DHT22;8977;50.902;4.314;2023-04-15T02:21:27;13.70;99.90
17715;DHT22;8977;50.902;4.314;2023-04-15T02:23:54;13.70;99.90
17715;DHT22;8977;50.902;4.314;2023-04-15T02:26:22;13.70;99.90
17715;DHT22;8977;50.902;4.314;2023-04-15T02:28:49;13.70;99.90
17715;DHT22;8977;50.902;4.314;2023-04-15T02:31:16;13.70;99.90
17715;DHT22;8977;50.902;4.314;2023-04-15T02:33:43;13.70;99.90
17715;DHT22;8977;50.902;4.314;2023-04-15T02:36:11;13.70;99.90
17715;DHT22;8977;50.902;4.314;2023-04-15T02:38:39;13.70;99.90
17715;DHT22;8977;50.902;4.314;2023-04-15T02:41:08;13.70;99.90
17715;DHT22;8977;50.902;4.314;2023-04-15T02:43:34;13.70;99.90
17715;DHT22;8977;50.902;4.314;2023-04-15T02:46:02;13.70;99.90
17715;DHT22;8977;50.902;4.314;2023-04-15T02:48:29;13.70;99.90
17715;DHT22;8977;50.902;4.314;2023-04-15T02:51:13;13.60;99.90
17715;DHT22;8977;50.902;4.314;2023-04-15T02:53:41;13.60;99.90
17715;DHT22;8977;50.902;4.314;2023-04-15T02:56:08;13.60;99.90
17715;DHT22;8977;50.902;4.314;2023-04-15T02:58:35;13.60;99.90
17715;DHT22;8977;50.902;4.314;2023-04-15T03:01:02;13.60;99.90
17715;DHT22;8977;50.902;4.314;2023-04-15T03:03:29;13.60;99.90
17715;DHT22;8977;50.902;4.314;2023-04-15T03:05:56;13.60;99.90
17715;DHT22;8977;50.902;4.314;2023-04-15T03:08:24;13.60;99.90
17715;DHT22;8977;50.902;4.314;2023-04-15T03:10:51;13.60;99.90
17715;DHT22;8977;50.902;4.314;2023-04-15T03:13:19;13.70;99.90
17715;DHT22;8977;50.902;4.314;2023-04-15T03:15:46;13.60;99.90
17715;DHT22;8977;50.902;4.314;2023-04-15T03:18:13;13.60;99.90
17715;DHT22;8977;50.902;4.314;2023-04-15T03:20:40;13.70;99.90
17715;DHT22;8977;50.902;4.314;2023-04-15T03:23:06;13.70;99.90
17715;DHT22;8977;50.902;4.314;2023-04-15T03:25:35;13.60;99.90
17715;DHT22;8977;50.902;4.314;2023-04-15T03:28:02;13.60;99.90
17715;DHT22;8977;50.902;4.314;2023-04-15T03:30:29;13.60;99.90
17715;DHT22;8977;50.902;4.314;2023-04-15T03:32:56;13.60;99.90
17715;DHT22;8977;50.902;4.314;2023-04-15T03:35:23;13.60;99.90
17715;DHT22;8977;50.902;4.314;2023-04-15T03:37:50;13.50;99.90
17715;DHT22;8977;50.902;4.314;2023-04-15T03:40:16;13.50;99.90
17715;DHT22;8977;50.902;4.314;2023-04-15T03:42:45;13.50;99.90
17715;DHT22;8977;50.902;4.314;2023-04-15T03:45:11;13.50;99.90
17715;DHT22;8977;50.902;4.314;2023-04-15T03:47:38;13.50;99.90
17715;DHT22;8977;50.902;4.314;2023-04-15T03:50:06;13.50;99.90
17715;DHT22;8977;50.902;4.314;2023-04-15T03:52:33;13.50;99.90
17715;DHT22;8977;50.902;4.314;2023-04-15T03:55:00;13.50;99.90
17715;DHT22;8977;50.902;4.314;2023-04-15T03:57:27;13.50;99.90
17715;DHT22;8977;50.902;4.314;2023-04-15T03:59:56;13.40;99.90
17715;DHT22;8977;50.902;4.314;2023-04-15T04:02:23;13.40;99.90
17715;DHT22;8977;50.902;4.314;2023-04-15T04:04:49;13.40;99.90
17715;DHT22;8977;50.902;4.314;2023-04-15T04:07:17;13.40;99.90
17715;DHT22;8977;50.902;4.314;2023-04-15T04:09:44;13.40;99.90
17715;DHT22;8977;50.902;4.314;2023-04-15T04:12:10;13.30;99.90
17715;DHT22;8977;50.902;4.314;2023-04-15T04:14:37;13.30;99.90
17715;DHT22;8977;50.902;4.314;2023-04-15T04:17:06;13.40;99.90
17715;DHT22;8977;50.902;4.314;2023-04-15T04:19:32;13.40;99.90
17715;DHT22;8977;50.902;4.314;2023-04-15T04:21:59;13.40;99.90
17715;DHT22;8977;50.902;4.314;2023-04-15T04:24:26;13.40;99.90
17715;DHT22;8977;50.902;4.314;2023-04-15T04:26:53;13.30;99.90
17715;DHT22;8977;50.902;4.314;2023-04-15T04:29:21;13.40;99.90
17715;DHT22;8977;50.902;4.314;2023-04-15T04:31:48;13.30;99.90
17715;DHT22;8977;50.902;4.314;2023-04-15T04:34:16;13.30;99.90
17715;DHT22;8977;50.902;4.314;2023-04-15T04:36:43;13.30;99.90
17715;DHT22;8977;50.902;4.314;2023-04-15T04:39:10;13.30;99.90
17715;DHT22;8977;50.902;4.314;2023-04-15T04:41:36;13.30;99.90
17715;DHT22;8977;50.902;4.314;2023-04-15T04:44:03;13.20;99.90
17715;DHT22;8977;50.902;4.314;2023-04-15T04:46:30;13.20;99.90
17715;DHT22;8977;50.902;4.314;2023-04-15T04:48:57;13.30;99.90
17715;DHT22;8977;50.902;4.314;2023-04-15T04:51:25;13.30;99.90
17715;DHT22;8977;50.902;4.314;2023-04-15T04:53:53;13.20;99.90
17715;DHT22;8977;50.902;4.314;2023-04-15T04:56:20;13.20;99.90
17715;DHT22;8977;50.902;4.314;2023-04-15T04:58:46;13.20;99.90
17715;DHT22;8977;50.902;4.314;2023-04-15T05:01:13;13.20;99.90
17715;DHT22;8977;50.902;4.314;2023-04-15T05:03:40;13.20;99.90
17715;DHT22;8977;50.902;4.314;2023-04-15T05:06:07;13.20;99.90
17715;DHT22;8977;50.902;4.314;2023-04-15T05:08:35;13.20;99.90
17715;DHT22;8977;50.902;4.314;2023-04-15T05:11:02;13.20;99.90
17715;DHT22;8977;50.902;4.314;2023-04-15T05:13:29;13.20;99.90
17715;DHT22;8977;50.902;4.314;2023-04-15T05:15:56;13.20;99.90
17715;DHT22;8977;50.902;4.314;2023-04-15T05:18:23;13.20;99.90
17715;DHT22;8977;50.902;4.314;2023-04-15T05:20:50;13.20;99.90
17715;DHT22;8977;50.902;4.314;2023-04-15T05:23:17;13.10;99.90
17715;DHT22;8977;50.902;4.314;2023-04-15T05:25:45;13.20;99.90
17715;DHT22;8977;50.902;4.314;2023-04-15T05:28:12;13.20;99.90
17715;DHT22;8977;50.902;4.314;2023-04-15T05:30:39;13.20;99.90
17715;DHT22;8977;50.902;4.314;2023-04-15T05:33:06;13.10;99.90
17715;DHT22;8977;50.902;4.314;2023-04-15T05:35:34;13.10;99.90
17715;DHT22;8977;50.902;4.314;2023-04-15T05:38:01;13.20;99.90
17715;DHT22;8977;50.902;4.314;2023-04-15T05:40:28;13.10;99.90
17715;DHT22;8977;50.902;4.314;2023-04-15T05:42:57;13.10;99.90
17715;DHT22;8977;50.902;4.314;2023-04-15T05:45:24;13.20;99.90
17715;DHT22;8977;50.902;4.314;2023-04-15T05:47:51;13.20;99.90
17715;DHT22;8977;50.902;4.314;2023-04-15T05:50:19;13.30;99.90
17715;DHT22;8977;50.902;4.314;2023-04-15T05:52:46;13.30;99.90
17715;DHT22;8977;50.902;4.314;2023-04-15T05:55:12;13.30;99.90
17715;DHT22;8977;50.902;4.314;2023-04-15T05:57:39;13.40;99.90
17715;DHT22;8977;50.902;4.314;2023-04-15T06:00:09;13.40;99.90
17715;DHT22;8977;50.902;4.314;2023-04-15T06:02:36;13.30;99.90
17715;DHT22;8977;50.902;4.314;2023-04-15T06:05:03;13.20;99.90
17715;DHT22;8977;50.902;4.314;2023-04-15T06:07:34;13.20;99.90
17715;DHT22;8977;50.902;4.314;2023-04-15T06:10:01;13.20;99.90
17715;DHT22;8977;50.902;4.314;2023-04-15T06:12:28;13.20;99.90
17715;DHT22;8977;50.902;4.314;2023-04-15T06:14:55;13.10;99.90
17715;DHT22;8977;50.902;4.314;2023-04-15T06:17:23;13.20;99.90
17715;DHT22;8977;50.902;4.314;2023-04-15T06:19:50;13.20;99.90
17715;DHT22;8977;50.902;4.314;2023-04-15T06:22:20;13.20;99.90
17715;DHT22;8977;50.902;4.314;2023-04-15T06:24:47;13.10;99.90
17715;DHT22;8977;50.902;4.314;2023-04-15T06:27:13;13.20;99.90
17715;DHT22;8977;50.902;4.314;2023-04-15T06:29:40;13.20;99.90
17715;DHT22;8977;50.902;4.314;2023-04-15T06:32:07;13.30;99.90
17715;DHT22;8977;50.902;4.314;2023-04-15T06:34:35;13.30;99.90
17715;DHT22;8977;50.902;4.314;2023-04-15T06:37:02;13.30;99.90
17715;DHT22;8977;50.902;4.314;2023-04-15T06:39:29;13.30;99.90
17715;DHT22;8977;50.902;4.314;2023-04-15T06:41:56;13.30;99.90
17715;DHT22;8977;50.902;4.314;2023-04-15T06:44:23;13.30;99.90
17715;DHT22;8977;50.902;4.314;2023-04-15T06:46:50;13.30;99.90
17715;DHT22;8977;50.902;4.314;2023-04-15T06:49:17;13.30;99.90
17715;DHT22;8977;50.902;4.314;2023-04-15T06:51:45;13.40;99.90
17715;DHT22;8977;50.902;4.314;2023-04-15T06:54:12;13.40;99.90
17715;DHT22;8977;50.902;4.314;2023-04-15T06:56:38;13.40;99.90
17715;DHT22;8977;50.902;4.314;2023-04-15T06:59:06;13.40;99.90
17715;DHT22;8977;50.902;4.314;2023-04-15T07:01:33;13.50;99.90
17715;DHT22;8977;50.902;4.314;2023-04-15T07:04:00;13.40;99.90
17715;DHT22;8977;50.902;4.314;2023-04-15T07:06:26;13.50;99.90
17715;DHT22;8977;50.902;4.314;2023-04-15T07:08:55;13.50;99.90
17715;DHT22;8977;50.902;4.314;2023-04-15T07:11:21;13.50;99.90
17715;DHT22;8977;50.902;4.314;2023-04-15T07:13:48;13.60;99.90
17715;DHT22;8977;50.902;4.314;2023-04-15T07:16:15;13.60;99.90
17715;DHT22;8977;50.902;4.314;2023-04-15T07:18:42;13.60;99.90
17715;DHT22;8977;50.902;4.314;2023-04-15T07:21:09;13.60;99.90
17715;DHT22;8977;50.902;4.314;2023-04-15T07:23:35;13.70;99.90
17715;DHT22;8977;50.902;4.314;2023-04-15T07:26:04;13.80;99.90
17715;DHT22;8977;50.902;4.314;2023-04-15T07:28:31;13.80;99.90
17715;DHT22;8977;50.902;4.314;2023-04-15T07:30:58;13.80;99.90
17715;DHT22;8977;50.902;4.314;2023-04-15T07:33:25;13.80;99.90
17715;DHT22;8977;50.902;4.314;2023-04-15T07:35:52;13.90;99.90
17715;DHT22;8977;50.902;4.314;2023-04-15T07:38:18;14.00;99.90
17715;DHT22;8977;50.902;4.314;2023-04-15T07:40:45;14.00;99.90
17715;DHT22;8977;50.902;4.314;2023-04-15T07:43:14;14.00;99.90
17715;DHT22;8977;50.902;4.314;2023-04-15T07:45:41;14.00;99.90
17715;DHT22;8977;50.902;4.314;2023-04-15T07:48:08;14.00;99.90
17715;DHT22;8977;50.902;4.314;2023-04-15T07:50:35;14.10;99.90
17715;DHT22;8977;50.902;4.314;2023-04-15T07:53:02;14.10;99.90
17715;DHT22;8977;50.902;4.314;2023-04-15T07:55:30;14.10;99.90
17715;DHT22;8977;50.902;4.314;2023-04-15T07:57:57;14.20;99.90
17715;DHT22;8977;50.902;4.314;2023-04-15T08:00:25;14.20;99.90
17715;DHT22;8977;50.902;4.314;2023-04-15T08:02:52;14.20;99.90
17715;DHT22;8977;50.902;4.314;2023-04-15T08:05:21;14.20;99.90
17715;DHT22;8977;50.902;4.314;2023-04-15T08:07:48;14.20;99.90
17715;DHT22;8977;50.902;4.314;2023-04-15T08:10:15;14.20;99.90
17715;DHT22;8977;50.902;4.314;2023-04-15T08:12:42;14.10;99.90
17715;DHT22;8977;50.902;4.314;2023-04-15T08:15:13;14.10;99.90
17715;DHT22;8977;50.902;4.314;2023-04-15T08:17:42;14.20;99.90
17715;DHT22;8977;50.902;4.314;2023-04-15T08:20:10;14.20;99.90
17715;DHT22;8977;50.902;4.314;2023-04-15T08:22:37;14.20;99.90
17715;DHT22;8977;50.902;4.314;2023-04-15T08:25:05;14.20;99.90
17715;DHT22;8977;50.902;4.314;2023-04-15T08:27:33;14.20;99.90
17715;DHT22;8977;50.902;4.314;2023-04-15T08:30:01;14.30;99.90
17715;DHT22;8977;50.902;4.314;2023-04-15T08:32:28;14.30;99.90
17715;DHT22;8977;50.902;4.314;2023-04-15T08:34:58;14.40;99.90
17715;DHT22;8977;50.902;4.314;2023-04-15T08:37:26;14.40;99.90
17715;DHT22;8977;50.902;4.314;2023-04-15T08:39:53;14.40;99.90
17715;DHT22;8977;50.902;4.314;2023-04-15T08:42:30;14.40;99.90
17715;DHT22;8977;50.902;4.314;2023-04-15T08:44:58;14.40;99.90
17715;DHT22;8977;50.902;4.314;2023-04-15T08:47:29;14.40;99.90
17715;DHT22;8977;50.902;4.314;2023-04-15T08:49:58;14.40;99.90
17715;DHT22;8977;50.902;4.314;2023-04-15T08:52:30;14.40;99.90
17715;DHT22;8977;50.902;4.314;2023-04-15T08:54:57;14.50;99.90
17715;DHT22;8977;50.902;4.314;2023-04-15T08:57:26;14.50;99.90
17715;DHT22;8977;50.902;4.314;2023-04-15T08:59:55;14.50;99.90
17715;DHT22;8977;50.902;4.314;2023-04-15T09:02:22;14.60;99.90
17715;DHT22;8977;50.902;4.314;2023-04-15T09:04:50;14.60;99.90
17715;DHT22;8977;50.902;4.314;2023-04-15T09:07:18;14.70;99.90
17715;DHT22;8977;50.902;4.314;2023-04-15T09:09:45;14.70;99.90
17715;DHT22;8977;50.902;4.314;2023-04-15T09:12:12;14.70;99.90
17715;DHT22;8977;50.902;4.314;2023-04-15T09:14:39;14.80;99.90
17715;DHT22;8977;50.902;4.314;2023-04-15T09:17:09;14.80;99.90
17715;DHT22;8977;50.902;4.314;2023-04-15T09:19:36;14.90;99.90
17715;DHT22;8977;50.902;4.314;2023-04-15T09:22:03;15.00;99.90
17715;DHT22;8977;50.902;4.314;2023-04-15T09:24:37;14.90;99.90
17715;DHT22;8977;50.902;4.314;2023-04-15T09:27:04;15.00;99.90
17715;DHT22;8977;50.902;4.314;2023-04-15T09:29:31;15.10;99.90
17715;DHT22;8977;50.902;4.314;2023-04-15T09:32:08;15.10;99.90
17715;DHT22;8977;50.902;4.314;2023-04-15T09:34:36;15.20;99.90
17715;DHT22;8977;50.902;4.314;2023-04-15T09:37:03;15.30;99.90
17715;DHT22;8977;50.902;4.314;2023-04-15T09:39:47;15.40;99.90
17715;DHT22;8977;50.902;4.314;2023-04-15T09:42:15;15.40;99.90
17715;DHT22;8977;50.902;4.314;2023-04-15T09:44:48;15.40;99.90
17715;DHT22;8977;50.902;4.314;2023-04-15T09:47:28;15.50;99.90
17715;DHT22;8977;50.902;4.314;2023-04-15T09:49:56;15.60;99.90
17715;DHT22;8977;50.902;4.314;2023-04-15T09:52:23;15.60;99.90
17715;DHT22;8977;50.902;4.314;2023-04-15T09:54:52;15.60;99.90
17715;DHT22;8977;50.902;4.314;2023-04-15T09:57:21;15.60;99.90
17715;DHT22;8977;50.902;4.314;2023-04-15T09:59:48;15.60;99.90
17715;DHT22;8977;50.902;4.314;2023-04-15T10:02:17;15.70;99.90
17715;DHT22;8977;50.902;4.314;2023-04-15T10:04:44;15.80;99.90
17715;DHT22;8977;50.902;4.314;2023-04-15T10:07:14;15.90;99.90
17715;DHT22;8977;50.902;4.314;2023-04-15T10:09:43;15.90;99.90
17715;DHT22;8977;50.902;4.314;2023-04-15T10:12:14;16.00;99.90
17715;DHT22;8977;50.902;4.314;2023-04-15T10:14:42;16.00;99.90
17715;DHT22;8977;50.902;4.314;2023-04-15T10:17:10;16.10;99.90
17715;DHT22;8977;50.902;4.314;2023-04-15T10:19:38;16.10;99.90
17715;DHT22;8977;50.902;4.314;2023-04-15T10:22:06;16.10;99.90
17715;DHT22;8977;50.902;4.314;2023-04-15T10:24:33;16.20;99.90
17715;DHT22;8977;50.902;4.314;2023-04-15T10:27:02;16.20;99.90
17715;DHT22;8977;50.902;4.314;2023-04-15T10:29:31;16.30;99.90
17715;DHT22;8977;50.902;4.314;2023-04-15T10:31:58;16.30;99.90
17715;DHT22;8977;50.902;4.314;2023-04-15T10:34:26;16.30;99.90
17715;DHT22;8977;50.902;4.314;2023-04-15T10:36:54;16.30;99.90
17715;DHT22;8977;50.902;4.314;2023-04-15T10:39:41;16.40;99.90
17715;DHT22;8977;50.902;4.314;2023-04-15T10:42:09;16.40;99.90
17715;DHT22;8977;50.902;4.314;2023-04-15T10:44:38;16.50;99.90
17715;DHT22;8977;50.902;4.314;2023-04-15T10:47:11;16.50;99.90
17715;DHT22;8977;50.902;4.314;2023-04-15T10:49:46;16.50;99.90
17715;DHT22;8977;50.902;4.314;2023-04-15T10:52:15;16.60;99.90
17715;DHT22;8977;50.902;4.314;2023-04-15T10:54:43;16.60;99.90
17715;DHT22;8977;50.902;4.314;2023-04-15T10:57:14;16.60;99.90
17715;DHT22;8977;50.902;4.314;2023-04-15T11:00:09;16.60;99.90
17715;DHT22;8977;50.902;4.314;2023-04-15T11:02:44;16.70;99.90
17715;DHT22;8977;50.902;4.314;2023-04-15T11:05:12;16.70;99.90
17715;DHT22;8977;50.902;4.314;2023-04-15T11:07:46;16.70;99.90
17715;DHT22;8977;50.902;4.314;2023-04-15T11:13:20;16.70;99.90
17715;DHT22;8977;50.902;4.314;2023-04-15T11:15:49;16.70;99.90
17715;DHT22;8977;50.902;4.314;2023-04-15T11:18:17;16.80;99.90
17715;DHT22;8977;50.902;4.314;2023-04-15T11:20:45;16.80;99.90
17715;DHT22;8977;50.902;4.314;2023-04-15T11:23:14;16.80;99.90
17715;DHT22;8977;50.902;4.314;2023-04-15T11:25:42;16.80;99.90
17715;DHT22;8977;50.902;4.314;2023-04-15T11:28:10;16.80;98.80
17715;DHT22;8977;50.902;4.314;2023-04-15T11:30:38;16.80;97.80
17715;DHT22;8977;50.902;4.314;2023-04-15T11:33:08;16.80;96.50
17715;DHT22;8977;50.902;4.314;2023-04-15T11:35:35;16.90;97.00
17715;DHT22;8977;50.902;4.314;2023-04-15T11:38:02;16.90;97.20
17715;DHT22;8977;50.902;4.314;2023-04-15T11:40:30;16.90;97.10
17715;DHT22;8977;50.902;4.314;2023-04-15T11:43:05;16.90;97.40
17715;DHT22;8977;50.902;4.314;2023-04-15T11:45:33;16.90;97.50
17715;DHT22;8977;50.902;4.314;2023-04-15T11:48:11;16.90;96.90
17715;DHT22;8977;50.902;4.314;2023-04-15T11:50:39;17.10;95.30
17715;DHT22;8977;50.902;4.314;2023-04-15T11:53:08;17.10;94.70
17715;DHT22;8977;50.902;4.314;2023-04-15T11:55:42;17.10;95.00
17715;DHT22;8977;50.902;4.314;2023-04-15T11:58:11;17.10;95.30
17715;DHT22;8977;50.902;4.314;2023-04-15T12:00:39;17.20;96.10
17715;DHT22;8977;50.902;4.314;2023-04-15T12:03:17;17.20;97.00
17715;DHT22;8977;50.902;4.314;2023-04-15T12:06:13;17.30;97.60
17715;DHT22;8977;50.902;4.314;2023-04-15T12:09:02;17.30;97.90
17715;DHT22;8977;50.902;4.314;2023-04-15T12:11:35;17.40;97.10
17715;DHT22;8977;50.902;4.314;2023-04-15T12:14:04;17.30;97.10
17715;DHT22;8977;50.902;4.314;2023-04-15T12:16:33;17.30;97.10
17715;DHT22;8977;50.902;4.314;2023-04-15T12:19:04;17.40;96.10
17715;DHT22;8977;50.902;4.314;2023-04-15T12:21:34;17.40;96.30
17715;DHT22;8977;50.902;4.314;2023-04-15T12:24:02;17.40;93.90
17715;DHT22;8977;50.902;4.314;2023-04-15T12:26:32;17.40;94.40
17715;DHT22;8977;50.902;4.314;2023-04-15T12:29:00;17.30;95.00
17715;DHT22;8977;50.902;4.314;2023-04-15T12:31:27;17.40;95.20
17715;DHT22;8977;50.902;4.314;2023-04-15T12:33:55;17.40;95.60
17715;DHT22;8977;50.902;4.314;2023-04-15T12:36:23;17.50;96.10
17715;DHT22;8977;50.902;4.314;2023-04-15T12:38:50;17.60;95.90
17715;DHT22;8977;50.902;4.314;2023-04-15T12:41:17;17.70;95.50
17715;DHT22;8977;50.902;4.314;2023-04-15T12:43:45;17.70;95.30
17715;DHT22;8977;50.902;4.314;2023-04-15T12:46:12;17.80;95.50
17715;DHT22;8977;50.902;4.314;2023-04-15T12:48:40;17.90;95.40
17715;DHT22;8977;50.902;4.314;2023-04-15T12:51:06;18.00;95.70
17715;DHT22;8977;50.902;4.314;2023-04-15T12:53:35;18.10;95.10
17715;DHT22;8977;50.902;4.314;2023-04-15T12:56:01;18.20;94.90
17715;DHT22;8977;50.902;4.314;2023-04-15T12:58:28;18.30;94.80
17715;DHT22;8977;50.902;4.314;2023-04-15T13:00:56;18.30;94.60
17715;DHT22;8977;50.902;4.314;2023-04-15T13:03:22;18.30;94.60
17715;DHT22;8977;50.902;4.314;2023-04-15T13:05:49;18.40;94.80
17715;DHT22;8977;50.902;4.314;2023-04-15T13:08:17;18.50;94.70
17715;DHT22;8977;50.902;4.314;2023-04-15T13:10:45;18.60;94.90
17715;DHT22;8977;50.902;4.314;2023-04-15T13:13:12;18.60;95.40
17715;DHT22;8977;50.902;4.314;2023-04-15T13:15:39;18.80;95.50
17715;DHT22;8977;50.902;4.314;2023-04-15T13:18:06;18.80;95.40
17715;DHT22;8977;50.902;4.314;2023-04-15T13:20:34;18.90;95.70
17715;DHT22;8977;50.902;4.314;2023-04-15T13:23:01;18.90;96.00
17715;DHT22;8977;50.902;4.314;2023-04-15T13:25:27;18.90;96.60
17715;DHT22;8977;50.902;4.314;2023-04-15T13:27:55;18.70;94.70
17715;DHT22;8977;50.902;4.314;2023-04-15T13:30:23;18.70;94.00
17715;DHT22;8977;50.902;4.314;2023-04-15T13:32:50;18.80;93.60
17715;DHT22;8977;50.902;4.314;2023-04-15T13:35:18;18.80;93.40
17715;DHT22;8977;50.902;4.314;2023-04-15T13:37:45;18.90;93.00
17715;DHT22;8977;50.902;4.314;2023-04-15T13:40:12;19.00;94.00
17715;DHT22;8977;50.902;4.314;2023-04-15T13:42:39;18.90;93.40
17715;DHT22;8977;50.902;4.314;2023-04-15T13:45:09;19.00;93.90
17715;DHT22;8977;50.902;4.314;2023-04-15T13:47:36;18.90;93.50
17715;DHT22;8977;50.902;4.314;2023-04-15T13:50:04;18.90;93.80
17715;DHT22;8977;50.902;4.314;2023-04-15T13:52:31;18.80;94.00
17715;DHT22;8977;50.902;4.314;2023-04-15T13:54:57;18.70;94.20
17715;DHT22;8977;50.902;4.314;2023-04-15T13:57:24;18.60;94.70
17715;DHT22;8977;50.902;4.314;2023-04-15T13:59:51;18.60;94.70
17715;DHT22;8977;50.902;4.314;2023-04-15T14:02:20;18.50;94.80
17715;DHT22;8977;50.902;4.314;2023-04-15T14:04:47;18.50;95.40
17715;DHT22;8977;50.902;4.314;2023-04-15T14:07:14;18.60;95.50
17715;DHT22;8977;50.902;4.314;2023-04-15T14:09:42;18.60;95.20
17715;DHT22;8977;50.902;4.314;2023-04-15T14:12:09;18.60;94.90
17715;DHT22;8977;50.902;4.314;2023-04-15T14:14:36;18.60;94.50
17715;DHT22;8977;50.902;4.314;2023-04-15T14:17:02;18.50;95.20
17715;DHT22;8977;50.902;4.314;2023-04-15T14:19:31;18.40;95.80
17715;DHT22;8977;50.902;4.314;2023-04-15T14:21:58;18.30;96.10
17715;DHT22;8977;50.902;4.314;2023-04-15T14:24:25;18.20;95.60
17715;DHT22;8977;50.902;4.314;2023-04-15T14:26:52;18.10;95.30
17715;DHT22;8977;50.902;4.314;2023-04-15T14:29:19;18.00;95.20
17715;DHT22;8977;50.902;4.314;2023-04-15T14:31:46;17.90;94.70
17715;DHT22;8977;50.902;4.314;2023-04-15T14:34:14;17.80;94.70
17715;DHT22;8977;50.902;4.314;2023-04-15T14:36:42;17.80;94.90
17715;DHT22;8977;50.902;4.314;2023-04-15T14:39:10;17.70;95.20
17715;DHT22;8977;50.902;4.314;2023-04-15T14:41:37;17.70;95.80
17715;DHT22;8977;50.902;4.314;2023-04-15T14:44:03;17.70;96.10
17715;DHT22;8977;50.902;4.314;2023-04-15T14:46:33;17.70;96.40
17715;DHT22;8977;50.902;4.314;2023-04-15T14:49:00;17.70;96.60
17715;DHT22;8977;50.902;4.314;2023-04-15T14:51:27;17.70;96.70
17715;DHT22;8977;50.902;4.314;2023-04-15T14:53:57;17.60;96.90
17715;DHT22;8977;50.902;4.314;2023-04-15T14:56:24;17.50;96.70
17715;DHT22;8977;50.902;4.314;2023-04-15T14:58:50;17.40;97.10
17715;DHT22;8977;50.902;4.314;2023-04-15T15:01:19;17.40;97.40
17715;DHT22;8977;50.902;4.314;2023-04-15T15:03:46;17.30;97.50
17715;DHT22;8977;50.902;4.314;2023-04-15T15:06:12;17.20;97.40
17715;DHT22;8977;50.902;4.314;2023-04-15T15:08:39;17.30;97.60
17715;DHT22;8977;50.902;4.314;2023-04-15T15:11:07;17.20;98.10
17715;DHT22;8977;50.902;4.314;2023-04-15T15:13:34;17.20;98.70
17715;DHT22;8977;50.902;4.314;2023-04-15T15:16:01;17.20;99.80
17715;DHT22;8977;50.902;4.314;2023-04-15T15:18:29;17.30;99.90
17715;DHT22;8977;50.902;4.314;2023-04-15T15:20:55;17.30;99.90
17715;DHT22;8977;50.902;4.314;2023-04-15T15:23:22;17.30;99.90
17715;DHT22;8977;50.902;4.314;2023-04-15T15:25:49;17.30;99.90
17715;DHT22;8977;50.902;4.314;2023-04-15T15:28:18;17.40;99.90
17715;DHT22;8977;50.902;4.314;2023-04-15T15:30:46;17.40;99.90
17715;DHT22;8977;50.902;4.314;2023-04-15T15:33:13;17.40;99.90
17715;DHT22;8977;50.902;4.314;2023-04-15T15:35:40;17.50;99.90
17715;DHT22;8977;50.902;4.314;2023-04-15T15:38:07;17.50;99.90
17715;DHT22;8977;50.902;4.314;2023-04-15T15:40:33;17.50;99.90
17715;DHT22;8977;50.902;4.314;2023-04-15T15:43:00;17.50;99.90
17715;DHT22;8977;50.902;4.314;2023-04-15T15:45:28;17.40;99.90
17715;DHT22;8977;50.902;4.314;2023-04-15T15:47:55;17.40;99.90
17715;DHT22;8977;50.902;4.314;2023-04-15T15:50:23;17.40;99.90
17715;DHT22;8977;50.902;4.314;2023-04-15T15:52:50;17.30;99.90